Time;durP1;ratioP1;P1;durP2;ratioP2;P2;SDS_P1;SDS_P2;PMS_P1;PMS_P2;Temp;Humidity;BMP_temperature;BMP_pressure;BME280_temperature;BME280_humidity;BME280_pressure;Samples;Min_cycle;Max_cycle;Signal;HPM_P1;HPM_P2
2023/01/01 00:01:09;;;;;;;26.63;10.07;;;14.50;99.90;;;;;;5052299;28;20537;-69
2023/01/01 00:03:35;;;;;;;38.80;17.92;;;14.50;99.90;;;;;;5052104;28;20029;-69
2023/01/01 00:06:11;;;;;;;28.67;9.07;;;14.50;99.90;;;;;;5058733;28;20120;-72
2023/01/01 00:08:38;;;;;;;17.92;7.35;;;14.50;99.90;;;;;;5040608;28;20737;-71
2023/01/01 00:11:05;;;;;;;28.58;9.70;;;14.50;99.90;;;;;;5050338;28;20068;-68
2023/01/01 00:13:33;;;;;;;28.48;7.35;;;14.50;99.90;;;;;;5049890;28;20056;-71
2023/01/01 00:16:11;;;;;;;40.72;10.20;;;14.50;99.90;;;;;;5059800;28;20029;-70
2023/01/01 00:18:38;;;;;;;16.45;5.85;;;14.40;99.90;;;;;;5041482;28;20055;-69
2023/01/01 00:21:12;;;;;;;63.67;23.42;;;14.60;99.90;;;;;;5049663;28;20057;-70
2023/01/01 00:23:38;;;;;;;28.23;8.45;;;14.60;99.90;;;;;;5059598;28;20021;-70
2023/01/01 00:26:12;;;;;;;27.65;9.10;;;14.60;99.90;;;;;;5052854;28;20064;-70
2023/01/01 00:28:38;;;;;;;29.92;8.93;;;14.60;99.90;;;;;;5055733;28;20037;-74
2023/01/01 00:31:08;;;;;;;89.40;40.10;;;14.70;99.90;;;;;;5042345;28;20029;-71
2023/01/01 00:33:34;;;;;;;34.35;11.25;;;14.60;99.90;;;;;;5042179;28;20688;-71
2023/01/01 00:36:11;;;;;;;23.38;9.35;;;14.60;99.90;;;;;;5059592;28;20031;-71
2023/01/01 00:38:37;;;;;;;145.40;68.10;;;14.60;99.90;;;;;;5049571;28;20021;-68
2023/01/01 00:41:03;;;;;;;27.17;10.25;;;14.60;99.90;;;;;;5052284;28;20490;-70
2023/01/01 00:43:29;;;;;;;20.98;7.60;;;14.60;99.90;;;;;;5049827;28;20030;-69
2023/01/01 00:45:54;;;;;;;24.98;6.75;;;14.60;99.90;;;;;;5040144;28;20734;-68
2023/01/01 00:48:20;;;;;;;20.95;5.53;;;14.60;99.90;;;;;;5052639;28;20013;-68
2023/01/01 00:50:50;;;;;;;15.68;4.88;;;14.60;99.90;;;;;;5056645;28;20536;-72
2023/01/01 00:53:17;;;;;;;16.25;4.53;;;14.60;99.90;;;;;;5051907;28;20044;-70
2023/01/01 00:55:43;;;;;;;19.48;5.75;;;14.60;99.90;;;;;;5051172;28;20033;-69
2023/01/01 00:58:09;;;;;;;18.13;4.88;;;14.60;99.90;;;;;;5050479;28;20052;-70
2023/01/01 01:00:36;;;;;;;12.25;4.35;;;14.60;99.90;;;;;;5053887;28;20075;-69
2023/01/01 01:03:02;;;;;;;12.95;4.40;;;14.60;99.90;;;;;;5055388;28;20083;-74
2023/01/01 01:05:27;;;;;;;21.55;5.38;;;14.60;99.90;;;;;;5050647;28;20024;-70
2023/01/01 01:07:53;;;;;;;20.13;5.20;;;14.60;99.90;;;;;;5052190;28;20037;-71
2023/01/01 01:10:21;;;;;;;18.40;5.25;;;14.60;99.90;;;;;;5050196;28;20048;-69
2023/01/01 01:12:46;;;;;;;17.45;5.78;;;14.60;99.90;;;;;;5049980;28;20029;-71
2023/01/01 01:15:12;;;;;;;16.48;4.82;;;14.70;99.90;;;;;;5040156;28;20063;-71
2023/01/01 01:17:38;;;;;;;15.07;4.78;;;14.60;99.90;;;;;;5050895;28;20032;-73
2023/01/01 01:20:05;;;;;;;12.02;4.70;;;14.70;99.90;;;;;;5049404;28;20782;-73
2023/01/01 01:22:30;;;;;;;16.55;5.03;;;14.80;99.90;;;;;;5049706;28;20091;-70
2023/01/01 01:24:56;;;;;;;22.52;5.65;;;14.80;99.90;;;;;;5049786;28;20025;-69
2023/01/01 01:27:22;;;;;;;20.05;4.25;;;14.80;99.90;;;;;;5042048;28;20028;-70
2023/01/01 01:29:47;;;;;;;20.92;5.55;;;14.80;99.90;;;;;;5059759;28;20028;-69
2023/01/01 01:32:13;;;;;;;13.73;5.32;;;14.80;99.90;;;;;;5059228;28;20029;-70
2023/01/01 01:34:39;;;;;;;12.48;4.78;;;14.70;99.90;;;;;;5059468;28;20028;-70
2023/01/01 01:37:05;;;;;;;22.52;6.45;;;14.70;99.90;;;;;;5042421;28;20032;-69
2023/01/01 01:39:31;;;;;;;16.75;6.28;;;14.70;99.90;;;;;;5060190;28;20060;-68
2023/01/01 01:41:57;;;;;;;15.90;4.90;;;14.70;99.90;;;;;;5060259;28;20021;-72
2023/01/01 01:45:01;;;;;;;13.55;5.68;;;14.70;99.90;;;;;;5041770;28;20738;-72
2023/01/01 01:47:38;;;;;;;18.35;6.35;;;14.60;99.90;;;;;;5040464;28;20044;-70
2023/01/01 01:50:24;;;;;;;18.27;5.95;;;14.60;99.90;;;;;;5050169;28;20040;-71
2023/01/01 01:53:21;;;;;;;14.35;5.90;;;14.60;99.90;;;;;;5062091;28;20530;-72
2023/01/01 01:55:50;;;;;;;17.75;6.47;;;14.60;99.90;;;;;;5048814;28;20056;-72
2023/01/01 01:58:16;;;;;;;24.95;6.70;;;14.60;99.90;;;;;;5053116;28;20124;-74
2023/01/01 02:00:42;;;;;;;18.17;6.28;;;14.60;99.90;;;;;;5053631;28;20026;-71
2023/01/01 02:03:15;;;;;;;28.80;6.90;;;14.60;99.90;;;;;;5053767;28;20027;-77
2023/01/01 02:05:41;;;;;;;15.15;6.07;;;14.60;99.90;;;;;;5054112;28;20017;-71
2023/01/01 02:08:08;;;;;;;20.77;7.35;;;14.60;99.90;;;;;;5060423;28;20025;-74
2023/01/01 02:10:34;;;;;;;22.25;6.72;;;14.50;99.90;;;;;;5056358;28;20025;-70
2023/01/01 02:13:00;;;;;;;17.35;7.60;;;14.60;99.90;;;;;;5063184;28;20037;-71
2023/01/01 02:15:30;;;;;;;16.95;7.82;;;14.60;99.90;;;;;;5056775;28;20025;-71
2023/01/01 02:18:03;;;;;;;20.17;7.43;;;14.60;99.90;;;;;;5046371;28;20025;-72
2023/01/01 02:20:35;;;;;;;24.65;9.27;;;14.60;99.90;;;;;;5064633;28;20053;-72
2023/01/01 02:23:30;;;;;;;17.75;7.63;;;14.60;99.90;;;;;;5063435;28;20049;-71
2023/01/01 02:26:09;;;;;;;20.05;9.25;;;14.70;99.90;;;;;;5063462;28;20071;-69
2023/01/01 02:28:54;;;;;;;23.33;9.05;;;14.60;99.90;;;;;;5063904;28;20040;-70
2023/01/01 02:31:36;;;;;;;21.35;9.07;;;14.60;99.90;;;;;;5045863;28;20036;-72
2023/01/01 02:34:06;;;;;;;19.20;7.93;;;14.70;99.90;;;;;;5064645;28;20074;-72
2023/01/01 02:36:35;;;;;;;22.92;9.55;;;14.70;99.90;;;;;;5063995;28;20021;-71
2023/01/01 02:39:02;;;;;;;20.30;8.55;;;14.60;99.90;;;;;;5045131;28;20086;-72
2023/01/01 02:41:34;;;;;;;25.20;10.20;;;14.60;99.90;;;;;;5063911;28;20046;-70
2023/01/01 02:44:03;;;;;;;33.30;10.45;;;14.60;99.90;;;;;;5063733;28;20079;-70
2023/01/01 02:46:34;;;;;;;32.42;9.55;;;14.50;99.90;;;;;;5063183;28;20492;-72
2023/01/01 02:49:00;;;;;;;13.60;6.88;;;14.50;99.90;;;;;;5064370;28;20039;-72
2023/01/01 02:51:55;;;;;;;25.73;9.77;;;14.40;99.90;;;;;;5046129;28;20029;-69
2023/01/01 02:54:52;;;;;;;24.17;7.78;;;14.40;99.90;;;;;;5027919;28;20037;-71
2023/01/01 02:57:40;;;;;;;26.25;9.20;;;14.30;99.90;;;;;;5046196;28;20025;-71
2023/01/01 03:03:17;;;;;;;21.35;9.20;;;14.20;99.90;;;;;;5049417;28;20049;-70
2023/01/01 03:06:21;;;;;;;22.67;7.78;;;14.10;99.90;;;;;;5045020;28;20389;-72
2023/01/01 03:09:29;;;;;;;22.58;8.20;;;14.10;99.90;;;;;;5063110;28;20028;-68
2023/01/01 03:12:20;;;;;;;20.60;8.30;;;14.00;99.90;;;;;;5063432;28;20029;-69
2023/01/01 03:15:00;;;;;;;22.15;8.00;;;14.00;99.90;;;;;;5045194;28;20044;-72
2023/01/01 03:17:37;;;;;;;24.80;8.30;;;14.00;99.90;;;;;;5062761;28;20044;-69
2023/01/01 03:20:13;;;;;;;19.60;7.97;;;14.00;99.90;;;;;;5062894;28;20033;-73
2023/01/01 03:22:40;;;;;;;15.73;7.90;;;14.00;99.90;;;;;;5044799;28;20044;-73
2023/01/01 03:25:25;;;;;;;22.17;7.30;;;14.00;99.90;;;;;;5057487;28;20720;-71
2023/01/01 03:28:19;;;;;;;29.25;8.85;;;13.90;99.90;;;;;;5062176;28;20021;-67
2023/01/01 03:30:48;;;;;;;19.70;7.78;;;14.00;99.90;;;;;;5049315;28;20061;-70
2023/01/01 03:33:37;;;;;;;21.85;6.75;;;14.10;99.90;;;;;;5051652;28;20098;-70
2023/01/01 03:36:10;;;;;;;25.13;7.03;;;14.00;99.90;;;;;;5053350;28;20018;-72
2023/01/01 03:38:50;;;;;;;19.25;7.75;;;14.00;99.90;;;;;;5058709;28;20049;-70
2023/01/01 03:41:28;;;;;;;21.13;7.10;;;14.00;99.90;;;;;;5047700;28;20465;-70
2023/01/01 03:44:28;;;;;;;19.70;6.68;;;14.00;99.90;;;;;;5051630;28;20104;-68
2023/01/01 03:46:53;;;;;;;19.85;7.20;;;14.00;99.90;;;;;;5034687;28;20040;-70
2023/01/01 03:49:20;;;;;;;15.70;6.22;;;14.00;99.90;;;;;;5034183;28;20021;-71
2023/01/01 03:51:54;;;;;;;20.00;7.63;;;14.00;99.90;;;;;;5051147;28;20021;-71
2023/01/01 03:54:20;;;;;;;;;;;14.00;99.90;;;;;;5054761;28;20044;-72
2023/01/01 03:56:51;;;;;;;12.55;6.10;;;14.00;99.90;;;;;;5058410;28;19912;-70
2023/01/01 03:59:33;;;;;;;12.48;5.80;;;14.10;99.90;;;;;;5051797;28;20080;-71
2023/01/01 04:02:02;;;;;;;18.23;6.53;;;14.10;99.90;;;;;;5043410;28;20038;-69
2023/01/01 04:04:29;;;;;;;18.88;6.35;;;14.10;99.90;;;;;;5043885;28;20561;-71
2023/01/01 04:06:56;;;;;;;23.88;7.53;;;14.10;99.90;;;;;;5042378;28;20028;-73
2023/01/01 04:09:29;;;;;;;14.75;6.00;;;14.20;99.90;;;;;;5060779;28;20029;-72
2023/01/01 04:12:05;;;;;;;16.10;5.68;;;14.10;99.90;;;;;;5060572;28;20156;-71
2023/01/01 04:14:34;;;;;;;12.95;4.70;;;14.20;99.90;;;;;;5059628;28;20033;-72
2023/01/01 04:17:01;;;;;;;19.75;5.85;;;14.10;99.90;;;;;;5060760;28;20056;-67
2023/01/01 04:19:27;;;;;;;16.88;5.18;;;14.10;99.90;;;;;;5060368;28;20021;-72
2023/01/01 04:21:53;;;;;;;16.42;6.15;;;14.20;99.90;;;;;;5043213;28;20176;-71
2023/01/01 04:24:19;;;;;;;14.18;4.57;;;14.10;99.90;;;;;;5059714;28;20030;-71
2023/01/01 04:26:44;;;;;;;11.73;4.43;;;14.10;99.90;;;;;;5059531;28;20457;-72
2023/01/01 04:29:10;;;;;;;11.75;4.65;;;14.20;99.90;;;;;;5059077;28;20017;-70
2023/01/01 04:31:36;;;;;;;13.15;4.68;;;14.10;99.90;;;;;;5054704;28;20068;-71
2023/01/01 04:34:07;;;;;;;18.48;4.93;;;14.20;99.90;;;;;;5049154;28;20048;-72
2023/01/01 04:36:33;;;;;;;10.18;3.95;;;14.20;99.90;;;;;;5049482;28;20032;-69
2023/01/01 04:38:59;;;;;;;8.75;3.75;;;14.20;99.90;;;;;;5042930;28;20029;-68
2023/01/01 04:41:24;;;;;;;12.88;4.07;;;14.30;99.90;;;;;;5060853;28;20036;-70
2023/01/01 04:43:50;;;;;;;10.38;3.75;;;14.30;99.90;;;;;;5042225;28;20021;-71
2023/01/01 04:46:17;;;;;;;9.70;3.58;;;14.30;99.90;;;;;;5049240;28;20017;-74
2023/01/01 04:48:43;;;;;;;13.13;3.95;;;14.30;99.90;;;;;;5049068;28;20128;-72
2023/01/01 04:51:11;;;;;;;11.75;3.67;;;14.40;99.90;;;;;;5038760;28;20062;-72
2023/01/01 04:53:37;;;;;;;16.25;3.92;;;14.30;99.90;;;;;;5059858;28;20047;-73
2023/01/01 04:56:15;;;;;;;11.48;3.22;;;14.30;99.90;;;;;;5050289;28;20017;-71
2023/01/01 04:58:42;;;;;;;10.55;3.70;;;14.30;99.90;;;;;;5054356;28;20021;-73
2023/01/01 05:01:21;;;;;;;7.13;2.92;;;14.40;99.90;;;;;;5052277;28;20052;-70
2023/01/01 05:03:47;;;;;;;16.27;4.10;;;14.40;99.90;;;;;;5033003;28;20401;-73
2023/01/01 05:06:14;;;;;;;9.25;2.95;;;14.40;99.90;;;;;;5056757;28;20021;-71
2023/01/01 05:08:41;;;;;;;12.05;3.53;;;14.50;99.90;;;;;;5060487;28;20044;-72
2023/01/01 05:11:10;;;;;;;14.60;3.75;;;14.40;99.90;;;;;;5042567;28;20025;-74
2023/01/01 05:13:37;;;;;;;8.98;3.30;;;14.40;99.90;;;;;;5059631;28;20093;-71
2023/01/01 05:16:06;;;;;;;11.73;3.10;;;14.50;99.90;;;;;;5059029;28;20044;-71
2023/01/01 05:18:32;;;;;;;18.45;3.45;;;14.40;99.90;;;;;;5054724;28;20067;-71
2023/01/01 05:21:09;;;;;;;10.23;3.22;;;14.50;99.90;;;;;;5057663;28;20024;-71
2023/01/01 05:23:35;;;;;;;10.98;2.97;;;14.50;99.90;;;;;;5059373;28;20025;-71
2023/01/01 05:26:15;;;;;;;8.85;2.72;;;14.40;99.90;;;;;;5042257;28;20025;-71
2023/01/01 05:28:41;;;;;;;10.85;3.47;;;14.50;99.90;;;;;;5059965;28;20021;-71
2023/01/01 05:31:08;;;;;;;8.35;2.90;;;14.50;99.90;;;;;;5059984;28;20024;-70
2023/01/01 05:33:34;;;;;;;10.45;3.30;;;14.50;99.90;;;;;;5041919;28;20051;-68
2023/01/01 05:36:00;;;;;;;8.95;3.00;;;14.40;99.90;;;;;;5060352;28;20029;-69
2023/01/01 05:38:26;;;;;;;9.18;2.95;;;14.40;99.90;;;;;;5041330;28;20043;-72
2023/01/01 05:40:52;;;;;;;10.88;3.20;;;14.40;99.90;;;;;;5058882;28;20493;-72
2023/01/01 05:43:17;;;;;;;9.30;2.92;;;14.50;99.90;;;;;;5041392;28;20040;-70
2023/01/01 05:45:44;;;;;;;11.80;3.17;;;14.40;99.90;;;;;;5041862;28;20096;-70
2023/01/01 05:48:10;;;;;;;7.70;2.63;;;14.40;99.90;;;;;;5060019;28;20032;-72
2023/01/01 05:50:36;;;;;;;9.45;2.50;;;14.40;99.90;;;;;;5059758;28;20032;-71
2023/01/01 05:53:02;;;;;;;10.07;2.97;;;14.60;99.90;;;;;;5060364;28;20045;-72
2023/01/01 05:55:27;;;;;;;10.77;2.83;;;14.50;99.90;;;;;;5059875;28;20064;-70
2023/01/01 05:57:53;;;;;;;11.63;2.67;;;14.40;99.90;;;;;;5058481;28;20025;-70
2023/01/01 06:00:19;;;;;;;13.48;2.92;;;14.40;99.90;;;;;;5058966;28;20025;-71
2023/01/01 06:02:44;;;;;;;8.10;2.55;;;14.40;99.90;;;;;;5041813;28;20447;-68
2023/01/01 06:05:10;;;;;;;9.85;2.58;;;14.40;99.90;;;;;;5059794;28;20036;-69
2023/01/01 06:07:36;;;;;;;16.95;2.80;;;14.30;99.90;;;;;;5041343;28;20032;-72
2023/01/01 06:10:02;;;;;;;7.65;2.70;;;14.30;99.90;;;;;;5059382;28;20435;-69
2023/01/01 06:12:27;;;;;;;6.82;2.20;;;14.30;99.90;;;;;;5059093;28;20040;-70
2023/01/01 06:14:53;;;;;;;16.08;2.65;;;14.30;99.90;;;;;;5058750;28;20055;-69
2023/01/01 06:17:18;;;;;;;13.55;2.50;;;14.30;99.90;;;;;;5058898;28;20122;-69
2023/01/01 06:19:44;;;;;;;11.18;2.72;;;14.20;99.90;;;;;;5059072;28;20032;-71
2023/01/01 06:22:09;;;;;;;5.57;1.98;;;14.30;99.90;;;;;;5055640;28;20052;-72
2023/01/01 06:24:35;;;;;;;10.25;2.28;;;14.30;99.90;;;;;;5033299;28;20022;-70
2023/01/01 06:27:00;;;;;;;5.68;2.20;;;14.30;99.90;;;;;;5036841;28;20025;-70
2023/01/01 06:29:26;;;;;;;9.00;1.85;;;14.20;99.90;;;;;;5059330;28;20429;-68
2023/01/01 06:31:52;;;;;;;7.97;2.63;;;14.30;99.90;;;;;;5046353;28;20077;-72
2023/01/01 06:34:17;;;;;;;9.27;2.45;;;14.20;99.90;;;;;;5039163;28;20083;-69
2023/01/01 06:36:43;;;;;;;8.65;2.40;;;14.20;99.90;;;;;;5040468;28;20025;-72
2023/01/01 06:39:08;;;;;;;14.23;2.50;;;14.30;99.90;;;;;;5060107;28;20017;-72
2023/01/01 06:41:35;;;;;;;8.43;2.45;;;14.10;99.90;;;;;;5055945;28;20528;-71
2023/01/01 06:44:02;;;;;;;10.63;2.13;;;14.20;99.90;;;;;;5044739;28;20084;-72
2023/01/01 06:46:30;;;;;;;8.05;1.92;;;14.20;99.90;;;;;;5060880;28;20028;-71
2023/01/01 06:48:58;;;;;;;11.75;2.28;;;14.20;99.90;;;;;;5053569;28;20466;-71
2023/01/01 06:51:27;;;;;;;4.65;1.92;;;14.20;99.90;;;;;;5060371;28;20043;-71
2023/01/01 06:53:52;;;;;;;7.00;2.38;;;14.20;99.90;;;;;;5062146;28;20056;-69
2023/01/01 06:56:19;;;;;;;7.95;1.85;;;14.20;99.90;;;;;;5055151;28;20051;-71
2023/01/01 06:58:45;;;;;;;7.15;1.85;;;14.20;99.90;;;;;;5045928;28;20537;-68
2023/01/01 07:01:17;;;;;;;8.75;1.77;;;14.10;99.90;;;;;;5059451;28;20037;-70
2023/01/01 07:03:43;;;;;;;10.48;1.92;;;14.10;99.90;;;;;;5063234;28;20033;-70
2023/01/01 07:06:10;;;;;;;3.72;1.52;;;14.10;99.90;;;;;;5050533;28;20331;-73
2023/01/01 07:08:36;;;;;;;7.20;1.70;;;14.20;99.90;;;;;;5051062;28;20021;-70
2023/01/01 07:11:02;;;;;;;7.07;1.55;;;14.10;99.90;;;;;;5058878;28;20075;-70
2023/01/01 07:13:29;;;;;;;9.30;1.60;;;14.00;99.90;;;;;;5063350;28;20041;-70
2023/01/01 07:15:55;;;;;;;5.35;1.60;;;14.00;99.90;;;;;;5053538;28;20032;-70
2023/01/01 07:18:22;;;;;;;4.80;1.85;;;14.00;99.90;;;;;;5052937;28;20033;-71
2023/01/01 07:20:52;;;;;;;11.02;1.67;;;14.00;99.90;;;;;;5052110;28;20017;-71
2023/01/01 07:23:18;;;;;;;5.63;1.67;;;14.00;99.90;;;;;;5052740;28;20033;-68
2023/01/01 07:25:44;;;;;;;7.05;1.60;;;13.90;99.90;;;;;;5041931;28;20106;-73
2023/01/01 07:28:09;;;;;;;12.00;1.13;;;13.90;99.90;;;;;;5053991;28;20033;-69
2023/01/01 07:30:35;;;;;;;7.63;1.80;;;14.00;99.90;;;;;;5054989;28;20509;-70
2023/01/01 07:33:00;;;;;;;8.02;1.55;;;13.80;99.90;;;;;;5052698;28;20040;-72
2023/01/01 07:35:29;;;;;;;6.93;1.70;;;13.90;99.90;;;;;;5035353;28;20557;-71
2023/01/01 07:37:54;;;;;;;5.47;1.58;;;13.90;99.90;;;;;;5052180;28;20036;-70
2023/01/01 07:40:20;;;;;;;4.40;1.50;;;13.90;99.90;;;;;;5052475;28;20081;-72
2023/01/01 07:42:45;;;;;;;4.55;1.00;;;13.90;99.90;;;;;;5037130;28;20402;-73
2023/01/01 07:45:12;;;;;;;8.52;1.48;;;13.90;99.90;;;;;;5053261;28;20030;-70
2023/01/01 07:47:37;;;;;;;7.75;1.58;;;13.80;99.90;;;;;;5041213;28;20056;-70
2023/01/01 07:50:04;;;;;;;15.00;1.95;;;13.80;99.90;;;;;;5053249;28;20025;-71
2023/01/01 07:52:29;;;;;;;8.93;1.77;;;13.80;99.90;;;;;;5053112;28;20032;-70
2023/01/01 07:54:58;;;;;;;8.23;1.70;;;13.80;99.90;;;;;;5052673;28;20047;-71
2023/01/01 07:57:24;;;;;;;5.63;1.40;;;13.80;99.90;;;;;;5040586;28;20083;-70
2023/01/01 07:59:49;;;;;;;9.20;1.42;;;13.80;99.90;;;;;;5040234;28;20029;-72
2023/01/01 08:02:15;;;;;;;6.28;1.50;;;13.70;99.90;;;;;;5060651;28;20108;-68
2023/01/01 08:04:40;;;;;;;9.13;1.52;;;13.80;99.90;;;;;;5042981;28;20087;-71
2023/01/01 08:07:08;;;;;;;4.88;1.25;;;13.80;99.90;;;;;;5056076;28;20033;-70
2023/01/01 08:09:33;;;;;;;3.40;1.17;;;13.70;99.90;;;;;;5042730;28;20052;-70
2023/01/01 08:11:59;;;;;;;2.55;1.25;;;13.70;99.90;;;;;;5059592;28;20477;-70
2023/01/01 08:14:24;;;;;;;5.00;1.50;;;13.70;99.90;;;;;;5058141;28;20033;-70
2023/01/01 08:16:50;;;;;;;5.22;1.45;;;13.60;99.90;;;;;;5059026;28;20485;-69
2023/01/01 08:19:16;;;;;;;6.70;1.55;;;13.60;99.90;;;;;;5046173;28;20033;-69
2023/01/01 08:21:41;;;;;;;9.02;1.40;;;13.70;99.90;;;;;;5054122;28;20060;-68
2023/01/01 08:24:07;;;;;;;5.40;1.25;;;13.70;99.90;;;;;;5052865;28;20108;-70
2023/01/01 08:26:34;;;;;;;4.63;1.40;;;13.70;99.90;;;;;;5055890;28;20025;-69
2023/01/01 08:29:05;;;;;;;8.50;1.50;;;13.70;99.90;;;;;;5041129;28;20029;-69
2023/01/01 08:31:32;;;;;;;6.65;1.60;;;13.70;99.90;;;;;;5051514;28;20021;-69
2023/01/01 08:33:58;;;;;;;6.22;1.33;;;13.60;99.90;;;;;;5051645;28;20032;-71
2023/01/01 08:36:24;;;;;;;9.20;1.83;;;13.70;99.90;;;;;;5052270;28;20135;-68
2023/01/01 08:38:49;;;;;;;8.40;1.50;;;13.60;99.90;;;;;;5052700;28;20108;-70
2023/01/01 08:41:15;;;;;;;5.95;1.75;;;13.70;99.90;;;;;;5050818;28;20035;-71
2023/01/01 08:43:41;;;;;;;7.60;1.48;;;13.60;99.90;;;;;;5053418;28;20021;-70
2023/01/01 08:46:06;;;;;;;4.45;1.05;;;13.60;99.90;;;;;;5042313;28;20025;-70
2023/01/01 08:48:32;;;;;;;5.97;1.23;;;13.70;99.90;;;;;;5051324;28;20053;-69
2023/01/01 08:50:59;;;;;;;3.10;1.17;;;13.60;99.90;;;;;;5041891;28;20053;-69
2023/01/01 08:53:26;;;;;;;6.55;1.73;;;13.70;99.90;;;;;;5060198;28;20041;-71
2023/01/01 08:55:59;;;;;;;7.55;1.40;;;13.70;99.90;;;;;;5052604;28;20109;-70
2023/01/01 08:58:26;;;;;;;6.43;1.15;;;13.50;99.90;;;;;;5059109;28;20035;-69
2023/01/01 09:00:52;;;;;;;9.55;1.50;;;13.60;99.90;;;;;;5051630;28;20059;-70
2023/01/01 09:03:19;;;;;;;3.45;1.50;;;13.60;99.90;;;;;;5053822;28;20028;-70
2023/01/01 09:05:44;;;;;;;9.10;1.60;;;13.60;99.90;;;;;;5057361;28;20382;-69
2023/01/01 09:08:19;;;;;;;5.93;2.53;;;13.60;99.90;;;;;;5055066;28;20037;-69
2023/01/01 09:10:45;;;;;;;7.18;1.52;;;13.60;99.90;;;;;;5041950;28;20021;-69
2023/01/01 09:13:12;;;;;;;10.07;1.67;;;13.70;99.90;;;;;;5044244;28;20043;-69
2023/01/01 09:15:38;;;;;;;5.97;1.70;;;13.60;99.90;;;;;;5042265;28;20025;-70
2023/01/01 09:18:04;;;;;;;12.65;2.10;;;13.70;99.90;;;;;;5046879;28;20416;-70
2023/01/01 09:20:30;;;;;;;8.63;2.15;;;13.70;99.90;;;;;;5048539;28;20582;-69
2023/01/01 09:22:55;;;;;;;10.80;2.00;;;13.70;99.90;;;;;;5040855;28;20068;-69
2023/01/01 09:25:25;;;;;;;7.18;2.15;;;13.70;99.90;;;;;;5040292;28;20021;-69
2023/01/01 09:28:05;;;;;;;6.25;2.00;;;13.60;99.90;;;;;;5037102;28;20025;-68
2023/01/01 09:30:32;;;;;;;7.72;1.95;;;13.60;99.90;;;;;;5022013;28;20052;-70
2023/01/01 09:32:57;;;;;;;10.35;2.67;;;13.60;99.90;;;;;;5039358;28;20087;-70
2023/01/01 09:35:23;;;;;;;3.88;1.60;;;13.60;99.90;;;;;;5040143;28;20136;-69
2023/01/01 09:37:49;;;;;;;5.03;1.35;;;13.70;99.90;;;;;;5038184;28;20021;-69
2023/01/01 09:40:31;;;;;;;5.30;1.42;;;13.60;99.90;;;;;;5021136;28;20029;-69
2023/01/01 09:43:32;;;;;;;5.68;1.80;;;13.60;99.90;;;;;;5014224;28;20179;-69
2023/01/01 09:46:05;;;;;;;5.03;1.20;;;13.60;99.90;;;;;;5040138;28;20026;-69
2023/01/01 09:48:31;;;;;;;3.70;1.10;;;13.60;99.90;;;;;;5037821;28;20053;-68
2023/01/01 09:50:59;;;;;;;6.53;1.40;;;13.50;99.90;;;;;;5041233;28;20147;-70
2023/01/01 09:53:30;;;;;;;4.10;1.25;;;13.60;99.90;;;;;;5040323;28;20047;-70
2023/01/01 09:55:59;;;;;;;4.97;1.02;;;13.70;99.90;;;;;;5040703;28;20489;-69
2023/01/01 09:58:27;;;;;;;4.28;0.80;;;13.70;99.90;;;;;;5039850;28;20029;-68
2023/01/01 10:00:57;;;;;;;5.88;1.00;;;13.70;99.90;;;;;;5023087;28;20121;-69
2023/01/01 10:03:47;;;;;;;7.43;1.20;;;13.70;99.90;;;;;;5036720;28;20089;-70
2023/01/01 10:06:22;;;;;;;6.63;1.73;;;13.70;99.90;;;;;;5039347;28;20022;-71
2023/01/01 10:09:23;;;;;;;8.13;1.92;;;13.70;99.90;;;;;;5039718;28;20026;-69
2023/01/01 10:12:04;;;;;;;8.50;2.20;;;13.80;99.90;;;;;;5039048;28;20121;-70
2023/01/01 10:14:35;;;;;;;9.60;2.95;;;13.90;99.90;;;;;;5044427;28;20045;-70
2023/01/01 10:17:05;;;;;;;8.35;2.72;;;13.90;99.90;;;;;;5026498;28;21166;-69
2023/01/01 10:19:33;;;;;;;5.20;1.80;;;14.10;99.90;;;;;;5026885;28;20032;-70
2023/01/01 10:22:14;;;;;;;4.85;1.00;;;13.90;99.90;;;;;;5026671;28;20051;-70
2023/01/01 10:24:51;;;;;;;2.65;0.85;;;14.00;99.90;;;;;;5042167;28;20037;-70
2023/01/01 10:27:33;;;;;;;5.60;1.00;;;14.00;99.90;;;;;;5041736;28;20053;-68
2023/01/01 10:30:02;;;;;;;6.22;1.30;;;14.00;99.90;;;;;;5041739;28;20052;-69
2023/01/01 10:32:35;;;;;;;6.30;1.20;;;14.20;99.90;;;;;;5025209;28;20025;-70
2023/01/01 10:35:14;;;;;;;4.57;1.30;;;14.50;99.90;;;;;;5039882;28;20064;-69
2023/01/01 10:37:40;;;;;;;4.10;1.02;;;14.70;99.90;;;;;;5041259;28;20056;-69
2023/01/01 10:40:18;;;;;;;2.30;0.70;;;15.10;99.90;;;;;;5042095;28;20017;-70
2023/01/01 10:42:49;;;;;;;7.03;1.60;;;15.50;99.90;;;;;;5040760;28;20037;-71
2023/01/01 10:45:19;;;;;;;5.10;1.00;;;15.80;99.90;;;;;;5041671;28;20029;-69
2023/01/01 10:48:23;;;;;;;8.77;1.45;;;16.00;99.90;;;;;;5041062;28;20037;-70
2023/01/01 10:50:59;;;;;;;2.70;1.00;;;16.00;99.90;;;;;;5039980;28;20040;-71
2023/01/01 10:53:37;;;;;;;4.55;0.65;;;15.90;99.90;;;;;;5024501;28;20040;-71
2023/01/01 10:56:11;;;;;;;8.13;1.48;;;15.90;99.90;;;;;;5024631;28;20025;-70
2023/01/01 10:58:51;;;;;;;5.03;1.38;;;15.60;99.90;;;;;;5041569;28;20025;-71
2023/01/01 11:01:16;;;;;;;9.68;1.95;;;15.30;99.90;;;;;;5041624;28;20386;-70
2023/01/01 11:03:53;;;;;;;5.43;1.52;;;15.30;99.90;;;;;;5041042;28;20022;-73
2023/01/01 11:06:40;;;;;;;6.30;1.30;;;15.20;99.90;;;;;;5029280;28;20029;-69
2023/01/01 11:09:18;;;;;;;6.32;0.80;;;15.30;99.90;;;;;;5042028;28;20030;-69
2023/01/01 11:11:54;;;;;;;5.80;1.15;;;15.50;99.90;;;;;;5040590;28;20029;-70
2023/01/01 11:14:24;;;;;;;8.73;1.35;;;15.60;99.90;;;;;;5022131;28;20052;-70
2023/01/01 11:16:50;;;;;;;8.02;1.23;;;15.70;99.90;;;;;;5025441;28;20034;-69
2023/01/01 11:19:35;;;;;;;8.15;1.40;;;15.60;99.90;;;;;;5023593;28;20032;-70
2023/01/01 11:22:01;;;;;;;;;;;15.60;99.90;;;;;;5039507;28;20053;-71
2023/01/01 11:24:29;;;;;;;9.43;2.20;;;15.50;99.90;;;;;;5040655;28;20612;-70
2023/01/01 11:27:21;;;;;;;7.93;3.25;;;15.40;99.90;;;;;;5025384;28;20096;-70
2023/01/01 11:29:47;;;;;;;9.93;1.42;;;15.20;99.90;;;;;;5025573;28;20032;-71
2023/01/01 11:32:21;;;;;;;4.88;1.15;;;15.00;99.90;;;;;;5043943;28;20025;-69
2023/01/01 11:35:05;;;;;;;12.13;1.35;;;14.80;99.90;;;;;;5041421;28;20042;-69
2023/01/01 11:37:36;;;;;;;7.72;1.35;;;14.70;99.90;;;;;;5043850;28;20040;-71
2023/01/01 11:40:04;;;;;;;7.43;1.27;;;14.50;99.90;;;;;;5043124;28;20033;-69
2023/01/01 11:42:35;;;;;;;3.97;1.02;;;14.50;99.90;;;;;;5042583;28;20017;-69
2023/01/01 11:45:08;;;;;;;8.38;1.58;;;14.40;99.90;;;;;;5041798;28;20021;-69
2023/01/01 11:47:37;;;;;;;6.63;1.30;;;14.40;99.90;;;;;;5042305;28;20056;-69
2023/01/01 11:50:33;;;;;;;5.38;1.35;;;14.40;99.90;;;;;;5040431;28;20033;-71
2023/01/01 11:53:16;;;;;;;6.97;1.33;;;14.50;99.90;;;;;;5021464;28;20053;-69
2023/01/01 11:55:46;;;;;;;4.70;1.13;;;14.80;99.90;;;;;;5039163;28;20026;-73
2023/01/01 11:58:46;;;;;;;7.97;1.98;;;15.30;99.90;;;;;;5041184;28;20036;-71
2023/01/01 12:01:25;;;;;;;7.65;1.63;;;15.60;99.90;;;;;;5024664;28;20026;-71
2023/01/01 12:04:01;;;;;;;8.25;1.45;;;15.90;99.90;;;;;;5042029;28;20083;-69
2023/01/01 12:06:37;;;;;;;9.35;1.10;;;16.20;99.90;;;;;;5024464;28;20041;-70
2023/01/01 12:09:13;;;;;;;8.52;1.35;;;16.50;99.90;;;;;;5042057;28;20036;-70
2023/01/01 12:11:58;;;;;;;11.02;1.95;;;16.50;99.90;;;;;;5042818;28;20017;-68
2023/01/01 12:14:43;;;;;;;4.15;1.25;;;16.60;99.90;;;;;;5041211;28;20037;-72
2023/01/01 12:17:13;;;;;;;;;;;17.00;99.90;;;;;;5041437;28;20057;-70
2023/01/01 12:20:03;;;;;;;7.07;1.30;;;17.30;99.90;;;;;;5042860;28;19908;-68
2023/01/01 12:22:29;;;;;;;10.02;1.67;;;17.40;99.90;;;;;;5047478;28;20063;-68
2023/01/01 12:24:55;;;;;;;5.53;1.33;;;17.50;99.90;;;;;;5060640;28;20033;-70
2023/01/01 12:27:27;;;;;;;12.52;2.25;;;17.60;99.90;;;;;;5055137;28;20047;-70
2023/01/01 12:30:02;;;;;;;32.25;9.13;;;17.60;99.90;;;;;;5044069;28;20013;-71
2023/01/01 12:33:03;;;;;;;18.52;6.03;;;17.60;99.90;;;;;;5043076;28;20029;-69
2023/01/01 12:35:43;;;;;;;22.98;8.27;;;17.00;99.90;;;;;;5022032;28;20064;-71
2023/01/01 12:38:34;;;;;;;7.07;1.98;;;16.30;99.90;;;;;;5059051;28;20088;-68
2023/01/01 12:41:23;;;;;;;7.35;1.52;;;15.60;99.90;;;;;;5061667;28;20036;-70
2023/01/01 12:44:05;;;;;;;8.75;1.52;;;15.20;99.90;;;;;;5062123;28;20105;-70
2023/01/01 12:46:53;;;;;;;5.63;1.40;;;14.80;99.90;;;;;;5060249;28;20094;-73
2023/01/01 12:49:50;;;;;;;7.57;1.35;;;14.80;99.90;;;;;;5059672;28;20058;-69
2023/01/01 12:52:28;;;;;;;9.20;1.15;;;14.80;99.90;;;;;;5060764;28;20037;-69
2023/01/01 12:55:16;;;;;;;9.65;0.98;;;14.90;99.90;;;;;;5043063;28;20032;-68
2023/01/01 12:58:15;;;;;;;5.47;1.13;;;14.90;99.90;;;;;;5023944;28;20375;-69
2023/01/01 13:00:49;;;;;;;7.60;1.45;;;14.60;99.90;;;;;;5042735;28;20098;-70
2023/01/01 13:03:22;;;;;;;11.63;2.25;;;14.30;99.90;;;;;;5060785;28;20032;-70
2023/01/01 13:05:52;;;;;;;7.45;2.50;;;14.10;99.90;;;;;;5061330;28;20025;-69
2023/01/01 13:08:18;;;;;;;12.77;1.92;;;14.00;99.90;;;;;;5061115;28;20029;-69